Time;durP1;ratioP1;P1;durP2;ratioP2;P2;SDS_P1;SDS_P2;PMS_P1;PMS_P2;Temp;Humidity;BMP_temperature;BMP_pressure;BME280_temperature;BME280_humidity;BME280_pressure;Samples;Min_cycle;Max_cycle;Signal;HPM_P1;HPM_P2
2020/12/09 00:00:20;;;;;;;87.25;41.55;;;;;;;;;;5058710;28;20107;-82
2020/12/09 00:02:46;;;;;;;88.35;44.67;;;;;;;;;;5043743;28;20076;-82
2020/12/09 00:05:25;;;;;;;82.68;41.47;;;;;;;;;;5059346;28;20049;-82
2020/12/09 00:07:51;;;;;;;84.47;40.67;;;;;;;;;;5043319;28;20089;-82
2020/12/09 00:10:18;;;;;;;82.53;42.13;;;;;;;;;;5046496;28;20053;-82
2020/12/09 00:12:47;;;;;;;90.60;44.60;;;;;;;;;;5047364;28;20072;-82
2020/12/09 00:15:14;;;;;;;85.20;44.05;;;;;;;;;;5050926;28;20579;-82
2020/12/09 00:17:40;;;;;;;93.93;43.72;;;;;;;;;;5048257;28;20049;-82
2020/12/09 00:20:07;;;;;;;89.63;43.97;;;;;;;;;;5062120;28;20053;-82
2020/12/09 00:22:47;;;;;;;94.45;45.80;;;;;;;;;;5046590;28;20143;-82
2020/12/09 00:25:16;;;;;;;87.15;45.05;;;;;;;;;;5046627;28;20080;-82
2020/12/09 00:27:45;;;;;;;92.05;43.63;;;;;;;;;;5055799;28;20048;-82
2020/12/09 00:30:14;;;;;;;92.50;43.28;;;;;;;;;;5053577;28;20044;-82
2020/12/09 00:32:40;;;;;;;92.97;44.45;;;;;;;;;;5052104;28;20045;-82
2020/12/09 00:35:08;;;;;;;92.07;45.13;;;;;;;;;;5055320;28;20041;-82
2020/12/09 00:37:35;;;;;;;94.85;45.72;;;;;;;;;;5054603;28;20140;-83
2020/12/09 00:40:02;;;;;;;95.88;46.25;;;;;;;;;;5050018;28;20061;-82
2020/12/09 00:42:30;;;;;;;97.63;46.45;;;;;;;;;;5057290;28;20072;-82
2020/12/09 00:44:56;;;;;;;94.00;46.17;;;;;;;;;;5049342;28;20077;-82
2020/12/09 00:47:22;;;;;;;99.60;46.67;;;;;;;;;;5051985;28;20064;-82
2020/12/09 00:49:58;;;;;;;93.00;44.05;;;;;;;;;;5051551;28;20056;-82
2020/12/09 00:52:28;;;;;;;96.10;46.13;;;;;;;;;;5066506;28;20487;-82
2020/12/09 00:54:55;;;;;;;96.07;43.65;;;;;;;;;;5056676;28;20048;-82
2020/12/09 00:57:22;;;;;;;101.55;48.28;;;;;;;;;;5055663;28;20049;-82
2020/12/09 00:59:48;;;;;;;92.95;45.38;;;;;;;;;;5067495;28;20056;-82
2020/12/09 01:02:14;;;;;;;99.72;47.08;;;;;;;;;;5055151;28;20048;-82
2020/12/09 01:04:40;;;;;;;97.63;46.05;;;;;;;;;;5062501;28;20045;-82
2020/12/09 01:07:10;;;;;;;100.97;46.90;;;;;;;;;;5056958;28;20416;-82
2020/12/09 01:09:36;;;;;;;100.50;48.15;;;;;;;;;;5057099;28;20049;-82
2020/12/09 01:12:05;;;;;;;100.68;47.03;;;;;;;;;;5056629;28;20076;-82
2020/12/09 01:14:47;;;;;;;96.70;46.95;;;;;;;;;;5054131;28;20068;-82
2020/12/09 01:17:13;;;;;;;96.85;42.92;;;;;;;;;;5061845;28;20108;-82
2020/12/09 01:19:39;;;;;;;101.70;46.60;;;;;;;;;;5051559;28;20041;-81
2020/12/09 01:22:05;;;;;;;98.30;46.83;;;;;;;;;;5060584;28;20096;-82
2020/12/09 01:24:38;;;;;;;105.07;48.40;;;;;;;;;;5057816;28;20080;-82
2020/12/09 01:27:04;;;;;;;103.90;48.83;;;;;;;;;;5056744;28;20049;-82
2020/12/09 01:29:30;;;;;;;101.30;47.13;;;;;;;;;;5060733;28;20107;-81
2020/12/09 01:32:01;;;;;;;100.18;45.83;;;;;;;;;;5055373;28;20216;-82
2020/12/09 01:34:28;;;;;;;109.85;48.78;;;;;;;;;;5050968;28;20045;-82
2020/12/09 01:36:55;;;;;;;98.03;44.97;;;;;;;;;;5044001;28;20059;-82
2020/12/09 01:39:21;;;;;;;106.53;48.88;;;;;;;;;;5052847;28;20056;-82
2020/12/09 01:41:48;;;;;;;100.85;47.72;;;;;;;;;;5062764;28;20084;-82
2020/12/09 01:44:14;;;;;;;100.40;46.88;;;;;;;;;;5058075;28;20098;-81
2020/12/09 01:46:44;;;;;;;95.18;46.22;;;;;;;;;;5061090;28;20044;-82
2020/12/09 01:49:11;;;;;;;111.93;47.67;;;;;;;;;;5057476;28;20049;-81
2020/12/09 01:51:41;;;;;;;102.38;47.85;;;;;;;;;;5056214;28;20044;-82
2020/12/09 01:54:07;;;;;;;104.72;45.50;;;;;;;;;;5055767;28;20112;-82
2020/12/09 01:57:01;;;;;;;92.35;44.22;;;;;;;;;;5056856;28;20140;-82
2020/12/09 01:59:30;;;;;;;97.75;45.92;;;;;;;;;;5056080;28;20083;-81
2020/12/09 02:01:57;;;;;;;98.50;44.03;;;;;;;;;;5060178;28;20040;-82
2020/12/09 02:04:27;;;;;;;100.25;45.55;;;;;;;;;;5053391;28;20064;-81
2020/12/09 02:06:53;;;;;;;107.10;49.60;;;;;;;;;;5048175;28;20091;-82
2020/12/09 02:09:19;;;;;;;95.13;45.63;;;;;;;;;;5051750;28;20148;-82
2020/12/09 02:11:46;;;;;;;93.78;44.95;;;;;;;;;;5052811;28;20061;-82
2020/12/09 02:14:19;;;;;;;104.80;45.97;;;;;;;;;;5056033;28;20100;-82
2020/12/09 02:16:52;;;;;;;95.18;44.83;;;;;;;;;;5058834;28;20067;-82
2020/12/09 02:19:19;;;;;;;95.90;46.80;;;;;;;;;;5053457;28;20063;-81
2020/12/09 02:21:45;;;;;;;99.63;46.85;;;;;;;;;;5067361;28;20033;-82
2020/12/09 02:24:12;;;;;;;93.18;44.33;;;;;;;;;;5060593;28;20108;-82
2020/12/09 02:26:45;;;;;;;88.47;43.42;;;;;;;;;;5060227;28;20049;-82
2020/12/09 02:29:16;;;;;;;99.38;44.15;;;;;;;;;;5060965;28;20077;-82
2020/12/09 02:31:44;;;;;;;98.25;46.58;;;;;;;;;;5066662;28;20041;-82
2020/12/09 02:34:11;;;;;;;95.13;44.15;;;;;;;;;;5052561;28;20041;-81
2020/12/09 02:36:43;;;;;;;98.43;45.70;;;;;;;;;;5056627;28;20083;-81
2020/12/09 02:39:11;;;;;;;97.93;44.10;;;;;;;;;;5059727;28;20548;-82
2020/12/09 02:41:43;;;;;;;95.55;43.70;;;;;;;;;;5065606;28;20059;-82
2020/12/09 02:44:13;;;;;;;99.05;44.90;;;;;;;;;;5092735;28;20037;-81
2020/12/09 02:46:57;;;;;;;96.72;44.08;;;;;;;;;;5090393;28;20044;-82
2020/12/09 02:49:24;;;;;;;99.05;47.50;;;;;;;;;;5057346;28;20049;-82
2020/12/09 02:51:50;;;;;;;106.07;46.38;;;;;;;;;;5051045;28;20067;-81
2020/12/09 02:54:17;;;;;;;97.65;46.67;;;;;;;;;;5055524;28;20044;-81
2020/12/09 02:56:48;;;;;;;103.57;45.85;;;;;;;;;;5070454;28;20059;-81
2020/12/09 02:59:14;;;;;;;97.75;44.70;;;;;;;;;;5056521;28;20057;-81
2020/12/09 03:01:43;;;;;;;99.78;43.65;;;;;;;;;;5064929;28;20048;-81
2020/12/09 03:04:16;;;;;;;96.72;44.22;;;;;;;;;;5057525;28;20049;-82
2020/12/09 03:06:43;;;;;;;99.22;44.13;;;;;;;;;;5097525;28;20032;-82
2020/12/09 03:09:09;;;;;;;103.30;43.10;;;;;;;;;;5068349;28;20063;-82
2020/12/09 03:11:38;;;;;;;105.50;48.15;;;;;;;;;;5084643;28;20430;-83
2020/12/09 03:14:06;;;;;;;106.75;47.17;;;;;;;;;;5062005;28;20045;-82
2020/12/09 03:16:32;;;;;;;102.15;44.17;;;;;;;;;;5064549;28;20044;-82
2020/12/09 03:19:36;;;;;;;103.85;45.08;;;;;;;;;;5074718;28;20060;-82
2020/12/09 03:22:02;;;;;;;104.15;45.03;;;;;;;;;;5068365;28;20048;-82
2020/12/09 03:24:32;;;;;;;107.97;48.92;;;;;;;;;;5075908;28;20401;-81
2020/12/09 03:26:59;;;;;;;103.53;45.83;;;;;;;;;;5080796;28;20063;-82
2020/12/09 03:29:28;;;;;;;101.95;43.90;;;;;;;;;;5072119;28;20108;-82
2020/12/09 03:31:54;;;;;;;103.07;45.40;;;;;;;;;;5070802;28;20306;-82
2020/12/09 03:34:20;;;;;;;95.55;44.55;;;;;;;;;;5058308;28;20702;-82
2020/12/09 03:36:47;;;;;;;95.25;43.60;;;;;;;;;;5072736;28;20071;-82
2020/12/09 03:39:16;;;;;;;104.18;45.38;;;;;;;;;;5060736;28;20045;-82
2020/12/09 03:41:45;;;;;;;99.72;44.45;;;;;;;;;;5057056;28;20072;-82
2020/12/09 03:44:14;;;;;;;96.00;43.90;;;;;;;;;;5062502;28;20045;-82
2020/12/09 03:46:40;;;;;;;100.55;45.95;;;;;;;;;;5080665;28;20037;-82
2020/12/09 03:49:06;;;;;;;102.30;45.05;;;;;;;;;;5059032;28;20110;-82
2020/12/09 03:51:35;;;;;;;100.00;43.78;;;;;;;;;;5076098;28;20102;-82
2020/12/09 03:54:03;;;;;;;94.38;42.60;;;;;;;;;;5063625;28;20049;-82
2020/12/09 03:56:30;;;;;;;98.60;45.42;;;;;;;;;;5083578;28;20052;-82
2020/12/09 03:58:56;;;;;;;102.22;44.50;;;;;;;;;;5061195;28;20463;-82
2020/12/09 04:01:28;;;;;;;97.18;45.00;;;;;;;;;;5066155;28;20074;-82
2020/12/09 04:03:54;;;;;;;104.53;44.72;;;;;;;;;;5077202;28;20475;-82
2020/12/09 04:06:20;;;;;;;106.68;43.92;;;;;;;;;;5050082;28;20124;-82
2020/12/09 04:09:03;;;;;;;110.57;45.25;;;;;;;;;;5066212;28;20148;-82
2020/12/09 04:11:30;;;;;;;115.40;44.78;;;;;;;;;;5065198;28;20075;-82
2020/12/09 04:13:56;;;;;;;116.13;45.28;;;;;;;;;;5075749;28;20125;-82
2020/12/09 04:16:23;;;;;;;106.68;44.95;;;;;;;;;;5072321;28;20044;-82
2020/12/09 04:18:49;;;;;;;104.97;44.28;;;;;;;;;;5052057;28;20087;-82
2020/12/09 04:21:16;;;;;;;110.18;44.40;;;;;;;;;;5045693;28;20049;-82
2020/12/09 04:23:42;;;;;;;110.47;44.88;;;;;;;;;;5045718;28;20048;-82
2020/12/09 04:26:08;;;;;;;107.97;44.08;;;;;;;;;;5064802;28;20048;-82
2020/12/09 04:28:37;;;;;;;101.05;44.30;;;;;;;;;;5063385;28;20375;-82
2020/12/09 04:31:03;;;;;;;106.93;44.30;;;;;;;;;;5060778;28;20369;-82
2020/12/09 04:33:30;;;;;;;115.28;46.67;;;;;;;;;;5055499;28;20049;-82
2020/12/09 04:35:57;;;;;;;113.07;45.72;;;;;;;;;;5057942;28;20102;-82
2020/12/09 04:38:26;;;;;;;111.30;44.72;;;;;;;;;;5054160;28;20049;-82
2020/12/09 04:40:53;;;;;;;118.43;45.25;;;;;;;;;;5062360;28;20122;-82
2020/12/09 04:43:19;;;;;;;111.78;44.25;;;;;;;;;;5051862;28;20053;-82
2020/12/09 04:45:49;;;;;;;106.30;44.78;;;;;;;;;;5056810;28;20071;-82
2020/12/09 04:48:16;;;;;;;113.63;44.72;;;;;;;;;;5050937;28;20494;-82
2020/12/09 04:50:52;;;;;;;112.97;45.33;;;;;;;;;;5048145;28;20073;-82
2020/12/09 04:53:25;;;;;;;134.70;47.35;;;;;;;;;;5055282;28;20325;-82
2020/12/09 04:55:52;;;;;;;112.57;44.95;;;;;;;;;;5073320;28;20055;-82
2020/12/09 04:58:24;;;;;;;105.93;42.92;;;;;;;;;;5079194;28;20056;-82
2020/12/09 05:01:01;;;;;;;117.80;44.92;;;;;;;;;;5051822;28;20580;-82
2020/12/09 05:03:33;;;;;;;105.50;43.08;;;;;;;;;;5064912;28;20041;-82
2020/12/09 05:06:07;;;;;;;114.05;44.83;;;;;;;;;;5066965;28;20048;-82
2020/12/09 05:08:34;;;;;;;106.68;43.25;;;;;;;;;;5069892;28;20053;-81
2020/12/09 05:11:05;;;;;;;103.97;42.67;;;;;;;;;;5065671;28;20041;-83
2020/12/09 05:13:41;;;;;;;111.65;43.72;;;;;;;;;;5052094;28;20070;-81
2020/12/09 05:16:09;;;;;;;105.60;43.65;;;;;;;;;;5068834;28;20385;-82
2020/12/09 05:18:42;;;;;;;120.88;45.33;;;;;;;;;;5063306;28;20045;-82
2020/12/09 05:21:18;;;;;;;114.45;45.10;;;;;;;;;;5067188;28;20049;-81
2020/12/09 05:23:53;;;;;;;111.45;44.67;;;;;;;;;;5069094;28;20048;-83
2020/12/09 05:26:25;;;;;;;120.22;44.05;;;;;;;;;;5069409;28;20417;-81
2020/12/09 05:29:05;;;;;;;114.72;44.50;;;;;;;;;;5054661;28;20052;-82
2020/12/09 05:31:32;;;;;;;105.65;44.92;;;;;;;;;;5066367;28;20048;-81
2020/12/09 05:33:59;;;;;;;101.65;40.40;;;;;;;;;;5052144;28;20142;-82
2020/12/09 05:36:27;;;;;;;110.57;44.47;;;;;;;;;;5053640;28;20056;-82
2020/12/09 05:39:04;;;;;;;113.32;43.72;;;;;;;;;;5069792;28;20048;-81
2020/12/09 05:41:33;;;;;;;115.88;44.35;;;;;;;;;;5095324;28;20052;-81
2020/12/09 05:44:03;;;;;;;98.15;41.78;;;;;;;;;;5084535;28;20056;-82
2020/12/09 05:46:30;;;;;;;111.47;43.65;;;;;;;;;;5054972;28;20055;-82
2020/12/09 05:48:57;;;;;;;97.50;40.35;;;;;;;;;;5071569;28;20063;-81
2020/12/09 05:51:24;;;;;;;99.75;40.50;;;;;;;;;;5057700;28;20106;-81
2020/12/09 05:53:53;;;;;;;95.50;39.72;;;;;;;;;;5048232;28;20064;-81
2020/12/09 05:56:22;;;;;;;99.68;37.30;;;;;;;;;;5054754;28;20060;-82
2020/12/09 05:58:49;;;;;;;97.40;40.83;;;;;;;;;;5074392;28;20060;-83
2020/12/09 06:01:20;;;;;;;96.13;39.53;;;;;;;;;;5068437;28;20045;-82
2020/12/09 06:03:54;;;;;;;99.20;40.22;;;;;;;;;;5049237;28;20067;-82
2020/12/09 06:06:22;;;;;;;99.38;39.25;;;;;;;;;;5047561;28;20068;-82
2020/12/09 06:09:02;;;;;;;101.75;37.72;;;;;;;;;;5044519;28;20302;-82
2020/12/09 06:11:29;;;;;;;105.60;41.10;;;;;;;;;;5061577;28;20041;-83
2020/12/09 06:13:59;;;;;;;98.55;38.30;;;;;;;;;;5068273;28;20075;-83
2020/12/09 06:16:25;;;;;;;109.53;42.22;;;;;;;;;;5058289;28;20048;-82
2020/12/09 06:18:55;;;;;;;101.47;43.75;;;;;;;;;;5050781;28;20048;-81
2020/12/09 06:21:22;;;;;;;97.35;38.92;;;;;;;;;;5075676;28;20036;-83
2020/12/09 06:23:48;;;;;;;93.65;37.13;;;;;;;;;;5058502;28;20052;-83
2020/12/09 06:26:18;;;;;;;92.38;37.20;;;;;;;;;;5053515;28;20079;-82
2020/12/09 06:28:48;;;;;;;91.18;34.85;;;;;;;;;;5066882;28;20041;-82
2020/12/09 06:31:19;;;;;;;82.88;33.33;;;;;;;;;;5049321;28;20202;-82
2020/12/09 06:33:51;;;;;;;88.22;34.55;;;;;;;;;;5067884;28;20192;-82
2020/12/09 06:36:18;;;;;;;95.45;36.08;;;;;;;;;;5076559;28;20094;-81
2020/12/09 06:39:03;;;;;;;84.18;33.67;;;;;;;;;;5053990;28;20094;-81
2020/12/09 06:41:30;;;;;;;93.82;35.83;;;;;;;;;;5071345;28;20112;-81
2020/12/09 06:44:03;;;;;;;98.80;35.92;;;;;;;;;;5049244;28;20063;-81
2020/12/09 06:46:35;;;;;;;101.05;37.47;;;;;;;;;;5039231;28;20444;-82
2020/12/09 06:49:04;;;;;;;84.18;34.03;;;;;;;;;;5060822;28;20238;-83
2020/12/09 06:51:38;;;;;;;86.72;35.28;;;;;;;;;;5055085;28;20223;-81
2020/12/09 06:54:14;;;;;;;91.72;36.67;;;;;;;;;;5064456;28;20059;-81
2020/12/09 06:56:40;;;;;;;95.05;36.75;;;;;;;;;;5058241;28;20059;-81
2020/12/09 06:59:39;;;;;;;97.20;35.88;;;;;;;;;;5059746;28;20045;-82
2020/12/09 07:02:07;;;;;;;105.90;37.15;;;;;;;;;;5011858;28;20044;-82
2020/12/09 07:04:55;;;;;;;102.32;38.28;;;;;;;;;;5078059;28;20040;-82
2020/12/09 07:07:28;;;;;;;101.25;37.28;;;;;;;;;;5061276;28;20063;-82
2020/12/09 07:09:56;;;;;;;96.03;37.22;;;;;;;;;;5076826;28;20054;-82
2020/12/09 07:12:30;;;;;;;97.75;37.13;;;;;;;;;;5055079;28;20129;-82
2020/12/09 07:14:57;;;;;;;106.55;38.78;;;;;;;;;;5058188;28;20084;-82
2020/12/09 07:17:24;;;;;;;105.50;38.53;;;;;;;;;;5060465;28;20104;-82
2020/12/09 07:19:59;;;;;;;103.13;38.03;;;;;;;;;;5059562;28;20055;-82
2020/12/09 07:22:27;;;;;;;105.40;39.15;;;;;;;;;;5059215;28;20036;-82
2020/12/09 07:24:54;;;;;;;99.40;36.35;;;;;;;;;;5056106;28;20048;-82
2020/12/09 07:27:26;;;;;;;107.47;39.42;;;;;;;;;;5073181;28;20059;-80
2020/12/09 07:29:55;;;;;;;98.03;37.33;;;;;;;;;;5050868;28;21503;-81
2020/12/09 07:32:22;;;;;;;100.78;36.72;;;;;;;;;;5076234;28;20048;-82
2020/12/09 07:34:50;;;;;;;99.80;37.35;;;;;;;;;;5050878;28;20063;-82
2020/12/09 07:37:23;;;;;;;109.25;40.25;;;;;;;;;;5057373;28;20057;-82
2020/12/09 07:40:26;;;;;;;106.05;39.17;;;;;;;;;;5074106;28;20044;-82
2020/12/09 07:43:06;;;;;;;109.55;38.28;;;;;;;;;;5070601;28;20060;-82
2020/12/09 07:45:36;;;;;;;114.53;38.58;;;;;;;;;;5069379;28;20528;-81
2020/12/09 07:48:24;;;;;;;118.95;40.45;;;;;;;;;;5077873;28;20071;-81
2020/12/09 07:50:58;;;;;;;113.33;39.40;;;;;;;;;;5051637;28;20058;-81
2020/12/09 07:53:25;;;;;;;115.90;41.17;;;;;;;;;;5072751;28;20131;-82
2020/12/09 07:55:52;;;;;;;115.72;40.60;;;;;;;;;;5057217;28;20045;-82
2020/12/09 07:58:22;;;;;;;110.70;40.20;;;;;;;;;;5078789;28;20067;-82
2020/12/09 08:00:52;;;;;;;110.65;41.72;;;;;;;;;;5074709;28;20045;-82
2020/12/09 08:03:28;;;;;;;117.15;42.45;;;;;;;;;;5055323;28;20060;-82
2020/12/09 08:05:56;;;;;;;;;;;;;;;;;;5071528;28;20045;-84
2020/12/09 08:08:25;;;;;;;110.75;38.42;;;;;;;;;;5073046;28;20011;-82
2020/12/09 08:10:55;;;;;;;113.70;42.63;;;;;;;;;;5067204;28;20045;-82
2020/12/09 08:13:25;;;;;;;108.57;42.90;;;;;;;;;;5060069;28;20051;-81
2020/12/09 08:15:57;;;;;;;112.32;40.88;;;;;;;;;;5063009;28;20054;-82
2020/12/09 08:18:27;;;;;;;117.47;43.40;;;;;;;;;;5039708;28;20123;-82
2020/12/09 08:20:56;;;;;;;123.65;43.95;;;;;;;;;;5045287;28;20086;-82
2020/12/09 08:23:36;;;;;;;120.55;42.35;;;;;;;;;;5039898;28;20037;-83
2020/12/09 08:26:02;;;;;;;118.20;41.90;;;;;;;;;;5043177;28;20037;-81
2020/12/09 08:28:35;;;;;;;105.78;40.22;;;;;;;;;;5060966;28;20399;-81
2020/12/09 08:31:22;;;;;;;109.65;43.92;;;;;;;;;;5062965;28;20345;-81
2020/12/09 08:33:50;;;;;;;116.45;41.67;;;;;;;;;;5064587;28;20980;-82
2020/12/09 08:36:17;;;;;;;109.25;41.65;;;;;;;;;;5064262;28;20094;-82
2020/12/09 08:38:52;;;;;;;114.53;41.40;;;;;;;;;;5071316;28;20126;-82
2020/12/09 08:41:28;;;;;;;123.80;42.15;;;;;;;;;;5062325;28;20052;-82
2020/12/09 08:44:11;;;;;;;117.25;40.85;;;;;;;;;;5059135;28;20080;-82
2020/12/09 08:46:37;;;;;;;115.75;40.53;;;;;;;;;;5039786;28;20078;-82
2020/12/09 08:49:04;;;;;;;119.20;44.53;;;;;;;;;;5059615;28;20048;-82
2020/12/09 08:51:43;;;;;;;110.60;40.20;;;;;;;;;;5040673;28;20182;-82
2020/12/09 08:54:11;;;;;;;108.43;39.13;;;;;;;;;;5043822;28;20095;-83
2020/12/09 08:56:37;;;;;;;111.80;42.42;;;;;;;;;;5043548;28;20055;-82
2020/12/09 08:59:06;;;;;;;110.03;42.08;;;;;;;;;;5056996;28;20037;-82
2020/12/09 09:01:36;;;;;;;118.78;41.38;;;;;;;;;;5060436;28;20388;-82
2020/12/09 09:04:10;;;;;;;107.65;39.53;;;;;;;;;;5039242;28;20091;-82
2020/12/09 09:06:39;;;;;;;110.65;40.08;;;;;;;;;;5037772;28;20222;-82
2020/12/09 09:09:06;;;;;;;111.05;40.80;;;;;;;;;;5060261;28;20330;-83
2020/12/09 09:11:33;;;;;;;108.88;40.53;;;;;;;;;;5058684;28;20067;-82
2020/12/09 09:14:01;;;;;;;124.57;44.00;;;;;;;;;;5043541;28;20147;-83
2020/12/09 09:16:28;;;;;;;108.43;41.60;;;;;;;;;;5060957;28;20109;-83
2020/12/09 09:18:54;;;;;;;117.25;43.10;;;;;;;;;;5046247;28;20076;-83
2020/12/09 09:21:20;;;;;;;115.63;44.28;;;;;;;;;;5041265;28;20053;-82
2020/12/09 09:23:48;;;;;;;112.53;41.88;;;;;;;;;;5045910;28;20048;-82
2020/12/09 09:26:15;;;;;;;113.43;42.03;;;;;;;;;;5061721;28;20090;-82
2020/12/09 09:28:43;;;;;;;107.50;41.75;;;;;;;;;;5056717;28;20088;-82
2020/12/09 09:31:10;;;;;;;119.00;43.47;;;;;;;;;;5058191;28;20054;-82
2020/12/09 09:33:39;;;;;;;103.07;39.28;;;;;;;;;;5044157;28;20056;-82
2020/12/09 09:36:17;;;;;;;109.38;42.65;;;;;;;;;;5060216;28;20391;-82
2020/12/09 09:38:44;;;;;;;107.38;42.00;;;;;;;;;;5047581;28;20617;-82
2020/12/09 09:41:10;;;;;;;108.22;42.25;;;;;;;;;;5059188;28;20091;-82
2020/12/09 09:43:36;;;;;;;108.18;42.17;;;;;;;;;;5044933;28;20053;-82
2020/12/09 09:46:09;;;;;;;120.50;42.10;;;;;;;;;;5061781;28;20049;-81
2020/12/09 09:48:37;;;;;;;112.97;42.80;;;;;;;;;;5044251;28;20102;-81
2020/12/09 09:51:05;;;;;;;116.68;42.53;;;;;;;;;;5065511;28;20068;-82
2020/12/09 09:53:34;;;;;;;107.30;40.85;;;;;;;;;;5042529;28;20401;-82
2020/12/09 09:56:00;;;;;;;103.43;41.53;;;;;;;;;;5060149;28;20116;-82
2020/12/09 09:58:33;;;;;;;109.88;43.00;;;;;;;;;;5066849;28;20045;-81
2020/12/09 10:00:59;;;;;;;98.55;39.85;;;;;;;;;;5067648;28;20060;-82
2020/12/09 10:03:26;;;;;;;102.60;40.42;;;;;;;;;;5060325;28;20047;-82
2020/12/09 10:05:55;;;;;;;107.38;42.08;;;;;;;;;;5075694;28;20212;-83
2020/12/09 10:08:24;;;;;;;104.82;41.30;;;;;;;;;;5067986;28;20064;-81
2020/12/09 10:10:50;;;;;;;105.15;42.65;;;;;;;;;;5056639;28;20048;-82
2020/12/09 10:13:26;;;;;;;109.40;42.28;;;;;;;;;;5036742;28;20697;-81
2020/12/09 10:15:55;;;;;;;104.82;40.40;;;;;;;;;;5065224;28;20037;-82
2020/12/09 10:18:21;;;;;;;98.47;39.60;;;;;;;;;;5070778;28;20036;-81
2020/12/09 10:20:59;;;;;;;103.35;38.65;;;;;;;;;;5034552;28;20140;-82
2020/12/09 10:23:29;;;;;;;100.75;40.13;;;;;;;;;;5051986;28;20047;-81
2020/12/09 10:25:55;;;;;;;105.50;40.35;;;;;;;;;;5039229;28;20056;-81
2020/12/09 10:28:27;;;;;;;100.65;39.25;;;;;;;;;;5036235;28;20307;-81
2020/12/09 10:31:01;;;;;;;100.40;40.20;;;;;;;;;;5060894;28;20054;-82
2020/12/09 10:33:34;;;;;;;106.70;42.22;;;;;;;;;;5060266;28;20243;-82
2020/12/09 10:36:04;;;;;;;103.93;40.50;;;;;;;;;;5052921;28;20104;-82
2020/12/09 10:38:33;;;;;;;109.78;40.80;;;;;;;;;;5045367;28;20110;-83
2020/12/09 10:41:03;;;;;;;99.60;40.30;;;;;;;;;;5051532;28;20128;-83
2020/12/09 10:43:33;;;;;;;120.05;42.88;;;;;;;;;;5043466;28;20288;-83
2020/12/09 10:46:01;;;;;;;110.95;43.20;;;;;;;;;;5045402;28;20113;-83
2020/12/09 10:48:28;;;;;;;128.75;48.72;;;;;;;;;;5060309;28;20041;-82
2020/12/09 10:50:55;;;;;;;107.50;42.08;;;;;;;;;;5059073;28;20114;-81
2020/12/09 10:53:33;;;;;;;110.90;42.13;;;;;;;;;;5057453;28;20140;-81
2020/12/09 10:56:02;;;;;;;111.80;43.83;;;;;;;;;;5055773;28;20048;-82
2020/12/09 10:58:32;;;;;;;111.13;45.90;;;;;;;;;;5040228;28;20067;-82
2020/12/09 11:00:58;;;;;;;119.72;45.42;;;;;;;;;;5049816;28;20071;-80
2020/12/09 11:03:28;;;;;;;118.72;46.05;;;;;;;;;;5062954;28;20045;-82
2020/12/09 11:06:01;;;;;;;114.72;43.03;;;;;;;;;;5051548;28;20293;-81
2020/12/09 11:08:32;;;;;;;117.18;46.35;;;;;;;;;;5067246;28;20083;-82
2020/12/09 11:10:58;;;;;;;119.88;45.88;;;;;;;;;;5053511;28;20086;-82
2020/12/09 11:13:24;;;;;;;108.85;45.03;;;;;;;;;;5044332;28;20060;-81
2020/12/09 11:16:01;;;;;;;113.95;44.40;;;;;;;;;;5056255;28;20332;-82
2020/12/09 11:18:30;;;;;;;126.68;47.42;;;;;;;;;;5056387;28;20048;-82
2020/12/09 11:21:01;;;;;;;112.78;43.80;;;;;;;;;;5074206;28;20056;-83
2020/12/09 11:23:34;;;;;;;114.30;44.40;;;;;;;;;;5057795;28;20056;-82
2020/12/09 11:26:10;;;;;;;113.63;44.72;;;;;;;;;;5074331;28;20044;-83
2020/12/09 11:28:36;;;;;;;118.07;44.55;;;;;;;;;;5053452;28;20421;-81
2020/12/09 11:31:05;;;;;;;117.45;45.75;;;;;;;;;;5065120;28;20093;-82
2020/12/09 11:33:31;;;;;;;120.75;46.08;;;;;;;;;;5067978;28;20118;-82
2020/12/09 11:35:58;;;;;;;120.50;46.22;;;;;;;;;;5048502;28;20105;-82
2020/12/09 11:38:31;;;;;;;120.97;47.17;;;;;;;;;;5049355;28;20195;-83
2020/12/09 11:40:58;;;;;;;129.13;48.38;;;;;;;;;;5038059;28;20056;-83
2020/12/09 11:43:27;;;;;;;112.03;44.72;;;;;;;;;;5048273;28;20324;-83
2020/12/09 11:46:04;;;;;;;116.25;43.58;;;;;;;;;;5040646;28;20585;-82
2020/12/09 11:48:34;;;;;;;119.32;44.88;;;;;;;;;;5064265;28;20260;-83
2020/12/09 11:51:05;;;;;;;114.43;42.22;;;;;;;;;;5058702;28;20055;-83
2020/12/09 11:53:39;;;;;;;112.80;43.90;;;;;;;;;;5063162;28;20055;-85
2020/12/09 11:56:22;;;;;;;110.10;42.95;;;;;;;;;;5079948;28;20053;-83
2020/12/09 11:58:53;;;;;;;115.63;42.75;;;;;;;;;;5054583;28;20384;-82
2020/12/09 12:01:27;;;;;;;121.55;44.97;;;;;;;;;;5058194;28;20055;-82
2020/12/09 12:03:53;;;;;;;117.65;47.80;;;;;;;;;;5055174;28;20067;-82
2020/12/09 12:06:28;;;;;;;121.47;45.67;;;;;;;;;;5036723;28;20067;-82
2020/12/09 12:08:59;;;;;;;111.03;43.88;;;;;;;;;;5056341;28;20170;-83
2020/12/09 12:11:27;;;;;;;141.80;57.65;;;;;;;;;;5047392;28;20057;-82
2020/12/09 12:13:57;;;;;;;121.82;47.30;;;;;;;;;;5053572;28;20076;-82
2020/12/09 12:16:26;;;;;;;119.35;47.08;;;;;;;;;;5055702;28;20056;-81
2020/12/09 12:18:56;;;;;;;139.57;59.13;;;;;;;;;;5071628;28;20135;-83
2020/12/09 12:21:25;;;;;;;123.82;50.90;;;;;;;;;;5054812;28;20045;-82
2020/12/09 12:23:55;;;;;;;115.45;43.10;;;;;;;;;;5075580;28;20044;-82
2020/12/09 12:26:27;;;;;;;108.63;45.03;;;;;;;;;;5039307;28;20045;-83
2020/12/09 12:29:03;;;;;;;96.55;40.35;;;;;;;;;;5040703;28;20045;-82
2020/12/09 12:31:56;;;;;;;106.57;40.58;;;;;;;;;;5048915;28;20110;-82
2020/12/09 12:34:23;;;;;;;106.00;40.80;;;;;;;;;;5038554;28;20059;-82
2020/12/09 12:36:49;;;;;;;118.32;45.67;;;;;;;;;;5067017;28;20053;-82
2020/12/09 12:39:16;;;;;;;112.20;45.67;;;;;;;;;;5045250;28;20093;-82
2020/12/09 12:41:43;;;;;;;118.20;44.30;;;;;;;;;;5049669;28;20061;-82
2020/12/09 12:44:09;;;;;;;107.50;42.50;;;;;;;;;;5038768;28;20399;-82
2020/12/09 12:46:36;;;;;;;114.57;47.75;;;;;;;;;;5045650;28;20325;-82
2020/12/09 12:49:02;;;;;;;109.15;42.45;;;;;;;;;;5046471;28;20071;-84
2020/12/09 12:51:28;;;;;;;117.07;46.65;;;;;;;;;;5063712;28;20083;-82
2020/12/09 12:53:54;;;;;;;115.90;46.13;;;;;;;;;;5054983;28;20128;-83
2020/12/09 12:56:21;;;;;;;138.38;60.80;;;;;;;;;;5035431;28;20144;-83
2020/12/09 12:58:51;;;;;;;128.43;47.28;;;;;;;;;;5050915;28;20063;-83
2020/12/09 13:01:17;;;;;;;119.40;44.92;;;;;;;;;;5052907;28;20053;-83
2020/12/09 13:03:43;;;;;;;127.63;47.20;;;;;;;;;;5070481;28;20151;-83
2020/12/09 13:06:10;;;;;;;135.40;53.92;;;;;;;;;;5056678;28;20044;-83
2020/12/09 13:08:37;;;;;;;110.72;45.28;;;;;;;;;;5038699;28;20167;-84
2020/12/09 13:11:21;;;;;;;126.88;52.30;;;;;;;;;;5037819;28;20234;-82
2020/12/09 13:13:56;;;;;;;145.25;64.07;;;;;;;;;;5035502;28;20056;-83
2020/12/09 13:16:23;;;;;;;119.85;45.17;;;;;;;;;;5045242;28;20083;-84
2020/12/09 13:18:49;;;;;;;115.80;43.90;;;;;;;;;;5070566;28;20060;-83
2020/12/09 13:21:15;;;;;;;111.28;46.20;;;;;;;;;;5052388;28;20052;-83
2020/12/09 13:23:47;;;;;;;125.57;46.80;;;;;;;;;;5067166;28;20063;-83
2020/12/09 13:26:17;;;;;;;119.40;45.75;;;;;;;;;;5050614;28;20052;-83
2020/12/09 13:28:43;;;;;;;113.88;44.72;;;;;;;;;;5049722;28;20188;-83
2020/12/09 13:31:12;;;;;;;119.25;44.20;;;;;;;;;;5062814;28;20087;-83
2020/12/09 13:33:42;;;;;;;106.50;40.22;;;;;;;;;;5065650;28;20191;-81
2020/12/09 13:36:08;;;;;;;116.75;44.65;;;;;;;;;;5072921;28;20049;-82
2020/12/09 13:38:34;;;;;;;114.53;43.97;;;;;;;;;;5057962;28;20053;-83
2020/12/09 13:41:07;;;;;;;104.15;42.17;;;;;;;;;;5032414;28;20415;-83
2020/12/09 13:43:36;;;;;;;118.85;41.67;;;;;;;;;;5068858;28;20268;-83
2020/12/09 13:46:13;;;;;;;120.65;44.50;;;;;;;;;;5074994;28;20040;-82
2020/12/09 13:48:39;;;;;;;103.85;45.08;;;;;;;;;;5049346;28;20049;-82
2020/12/09 13:51:12;;;;;;;113.25;45.63;;;;;;;;;;5049315;28;20065;-83
2020/12/09 13:53:41;;;;;;;112.60;45.90;;;;;;;;;;5059708;28;20045;-83
2020/12/09 13:56:28;;;;;;;128.40;44.38;;;;;;;;;;5046688;28;20428;-82
2020/12/09 13:58:54;;;;;;;110.20;43.85;;;;;;;;;;5056252;28;20351;-83
2020/12/09 14:01:23;;;;;;;109.07;43.20;;;;;;;;;;5055085;28;20286;-83
2020/12/09 14:03:50;;;;;;;113.60;45.75;;;;;;;;;;5055363;28;20048;-83
2020/12/09 14:06:22;;;;;;;126.75;47.90;;;;;;;;;;5071697;28;20312;-84
2020/12/09 14:08:49;;;;;;;117.68;44.38;;;;;;;;;;5069403;28;20198;-83
2020/12/09 14:11:22;;;;;;;108.95;41.35;;;;;;;;;;5032846;28;20049;-84
2020/12/09 14:13:49;;;;;;;100.20;38.88;;;;;;;;;;5038830;28;20316;-83
2020/12/09 14:16:15;;;;;;;96.35;39.50;;;;;;;;;;5041730;28;20045;-83
2020/12/09 14:18:49;;;;;;;108.38;41.10;;;;;;;;;;5058402;28;20056;-82
2020/12/09 14:21:16;;;;;;;104.40;42.28;;;;;;;;;;5038465;28;20106;-83
2020/12/09 14:23:48;;;;;;;117.53;41.88;;;;;;;;;;5059321;28;20071;-83